Aeroporto :
LOGIN :

Iscrizione | Disclaimer

   EN    FR    IT 

 










Sommario :    VFR   VFR Marginale   IFR   IFR Intensivo   IFR Molto Intensivo
Visibilità : 
Base nubi : 
>= 8 km
>= 3000ft
5 / 8 km
1000 / 3000 ft
1500m / 5 km
500 / 1000 ft
800 / 1500m
200 / 500 ft
< 800m
< 200 ft
Simboli :   Temporali  Nebbia  Neve Forte  Precipitazioni Forti  Vento > 20 kt
SIGMETs :   Varie  Temporali  Ghiacco  Turbolenza  Onda orograficha  Ceneri Vulcaniche






- Altitudine del aeroporto : 158 ft
- Codice IATA : QAR


EHDL - Deelen Airbase

ULTIMO METAR :
  • 241455Z AUTO 24013KT 160V310 9999 SCT033 BKN038 21/14 Q1014 BLU

METARs OBSOLETI :
  • 241425Z AUTO 23011KT 170V320 9999 SCT024 SCT029 BKN039 20/15 Q1014 WHT
  • 241355Z AUTO 23010KT 180V300 9999 BKN021 OVC024 19/15 Q1014 WHT
  • 241325Z AUTO 22008KT 140V280 9999 FEW028 SCT031 OVC037 20/15 Q1015 BLU
  • 241255Z AUTO 22012KT 160V270 9999 SCT022 BKN025 BKN029 20/15 Q1015 WHT
  • 241225Z AUTO 22011KT 150V280 9999 SCT023 BKN026 OVC029 20/15 Q1015 WHT
  • 241155Z AUTO 23013KT 150V290 9999 FEW021 BKN024 BKN027 20/15 Q1015 WHT

Previsioni scadute.



MetMap, La meteo Aeronautica in un colpo d'occhio ! - Copyright ORBIFLY Dicembre 2007 - Disclaimer

ORBIFLY MET'MAP TEAM :

Programmazione e sviluppo : Alexandra Zaïnal
Concezione : Baudouin d'Aumeries
Aiuto per la programmazione : Marc-Olivier Méhu
Supporto tecnico e logistico : Manuel Goepfert
Aiuto per la traduzione : Arnaldo La Scala

Contatto : metmap@orbifly.com




FONTI E CREDITI :

   NOAA